Time;durP1;ratioP1;P1;durP2;ratioP2;P2;SDS_P1;SDS_P2;PMS_P1;PMS_P2;Temp;Humidity;BMP_temperature;BMP_pressure;BME280_temperature;BME280_humidity;BME280_pressure;Samples;Min_cycle;Max_cycle;Signal;HPM_P1;HPM_P2
2022/05/10 00:00:08;;;;;;;1.10;0.80;;;14.20;99.90;;;;;;5073943;28;20475;-85
2022/05/10 00:02:37;;;;;;;1.27;1.10;;;14.10;99.90;;;;;;5073687;28;20453;-85
2022/05/10 00:05:06;;;;;;;2.10;1.10;;;14.10;99.90;;;;;;5073174;28;20475;-85
2022/05/10 00:07:36;;;;;;;0.93;0.90;;;14.10;99.90;;;;;;5073229;28;20456;-85
2022/05/10 00:10:03;;;;;;;1.40;0.90;;;14.00;99.90;;;;;;5073396;28;20469;-85
2022/05/10 00:12:30;;;;;;;4.13;2.40;;;14.00;99.90;;;;;;5072937;28;20441;-85
2022/05/10 00:14:57;;;;;;;2.40;2.20;;;13.90;99.90;;;;;;5072990;28;20452;-85
2022/05/10 00:17:28;;;;;;;2.73;1.70;;;13.90;99.90;;;;;;5072777;28;20806;-85
2022/05/10 00:19:56;;;;;;;3.13;1.70;;;13.90;99.90;;;;;;5076779;28;20472;-85
2022/05/10 00:22:23;;;;;;;1.77;1.67;;;13.80;99.90;;;;;;5076781;28;20451;-85
2022/05/10 00:24:50;;;;;;;2.30;1.30;;;13.80;99.90;;;;;;5076694;28;20433;-85
2022/05/10 00:27:17;;;;;;;1.27;1.10;;;13.80;99.90;;;;;;5076318;28;20533;-85
2022/05/10 00:29:44;;;;;;;2.07;1.57;;;13.80;99.90;;;;;;5076087;28;20842;-85
2022/05/10 00:32:11;;;;;;;2.13;1.77;;;13.80;99.90;;;;;;5075942;28;20445;-86
2022/05/10 00:34:37;;;;;;;1.33;1.23;;;13.80;99.90;;;;;;5076176;28;20429;-86
2022/05/10 00:37:06;;;;;;;1.27;0.70;;;13.80;99.90;;;;;;5076306;28;20453;-85
2022/05/10 00:39:33;;;;;;;1.57;1.00;;;13.80;99.90;;;;;;5075948;28;20465;-85
2022/05/10 00:42:04;;;;;;;2.10;1.30;;;13.80;99.90;;;;;;5075732;28;20967;-85
2022/05/10 00:44:35;;;;;;;1.43;1.00;;;13.80;99.90;;;;;;5076074;28;20892;-85
2022/05/10 00:47:08;;;;;;;0.57;0.57;;;13.80;99.90;;;;;;5075542;28;20467;-85
2022/05/10 00:49:40;;;;;;;1.87;1.67;;;13.80;99.90;;;;;;5075738;28;20445;-85
2022/05/10 00:52:14;;;;;;;1.40;1.30;;;13.70;99.90;;;;;;5075834;28;20429;-85
2022/05/10 00:54:47;;;;;;;1.70;1.20;;;13.70;99.90;;;;;;5075794;28;20436;-92
2022/05/10 00:57:28;;;;;;;2.30;1.23;;;13.70;99.90;;;;;;5077027;28;20422;-92
2022/05/10 01:00:01;;;;;;;1.43;1.00;;;13.60;99.90;;;;;;5077466;28;20461;-92
2022/05/10 01:02:34;;;;;;;2.80;0.83;;;13.70;99.90;;;;;;5076973;28;20435;-92
2022/05/10 01:05:08;;;;;;;2.10;1.40;;;13.60;99.90;;;;;;5076773;28;20428;-92
2022/05/10 01:07:49;;;;;;;3.20;1.40;;;13.70;99.90;;;;;;5076599;28;20958;-92
2022/05/10 01:10:24;;;;;;;1.30;1.20;;;13.60;99.90;;;;;;5077074;28;20465;-92
2022/05/10 01:12:57;;;;;;;2.83;1.07;;;13.60;99.90;;;;;;5076694;28;20436;-92
2022/05/10 01:15:25;;;;;;;2.07;1.33;;;13.60;99.90;;;;;;5076596;28;20429;-92
2022/05/10 01:17:56;;;;;;;1.33;1.23;;;13.50;99.90;;;;;;5076486;28;20430;-92
2022/05/10 01:20:29;;;;;;;1.63;1.03;;;13.50;99.90;;;;;;5077273;28;20468;-92
2022/05/10 01:23:19;;;;;;;1.87;0.60;;;13.50;99.90;;;;;;5076384;28;20436;-92
2022/05/10 01:25:56;;;;;;;1.37;1.13;;;13.50;99.90;;;;;;5076594;28;20484;-92
2022/05/10 01:28:30;;;;;;;2.17;1.73;;;13.40;99.90;;;;;;5076469;28;20475;-92
2022/05/10 01:31:00;;;;;;;0.90;0.90;;;13.40;99.90;;;;;;5076152;28;20479;-92
2022/05/10 01:33:29;;;;;;;0.77;0.77;;;13.40;99.90;;;;;;5076208;28;20476;-86
2022/05/10 01:36:15;;;;;;;0.90;0.70;;;13.30;99.90;;;;;;5074973;28;20506;-85
2022/05/10 01:38:50;;;;;;;2.30;1.37;;;13.30;99.90;;;;;;5074651;28;20944;-85
2022/05/10 01:41:24;;;;;;;1.27;1.17;;;13.20;99.90;;;;;;5074847;28;20795;-85
2022/05/10 01:44:01;;;;;;;0.83;0.83;;;13.20;99.90;;;;;;5074593;28;20432;-85
2022/05/10 01:46:32;;;;;;;2.87;0.83;;;13.20;99.90;;;;;;5074673;28;20471;-85
2022/05/10 01:49:05;;;;;;;2.17;2.07;;;13.10;99.90;;;;;;5074340;28;20425;-85
2022/05/10 01:51:37;;;;;;;2.57;1.17;;;13.10;99.90;;;;;;5074712;28;20440;-85
2022/05/10 01:54:13;;;;;;;2.50;1.23;;;13.10;99.90;;;;;;5074651;28;20440;-86
2022/05/10 01:56:40;;;;;;;1.33;0.73;;;13.10;99.90;;;;;;5075223;28;20818;-85
2022/05/10 01:59:09;;;;;;;1.53;1.33;;;13.10;99.90;;;;;;5074196;28;20449;-85
2022/05/10 02:01:42;;;;;;;1.53;1.10;;;13.10;99.90;;;;;;5074581;28;20459;-85
2022/05/10 02:04:13;;;;;;;1.23;0.83;;;13.10;99.90;;;;;;5074112;28;20489;-85
2022/05/10 02:06:46;;;;;;;1.00;1.00;;;13.10;99.90;;;;;;5074360;28;20460;-92
2022/05/10 02:09:19;;;;;;;1.70;1.00;;;13.10;99.90;;;;;;5075465;28;20469;-92
2022/05/10 02:11:51;;;;;;;2.80;0.77;;;13.10;99.90;;;;;;5075146;28;20935;-92
2022/05/10 02:14:25;;;;;;;2.70;1.40;;;13.10;99.90;;;;;;5075933;28;20432;-92
2022/05/10 02:16:58;;;;;;;2.97;1.37;;;13.10;99.90;;;;;;5075236;28;20437;-92
2022/05/10 02:19:28;;;;;;;0.80;0.80;;;13.10;99.90;;;;;;5076210;28;20469;-92
2022/05/10 02:21:59;;;;;;;3.77;1.27;;;13.10;99.90;;;;;;5079443;28;20430;-91
2022/05/10 02:24:32;;;;;;;1.77;1.40;;;13.10;99.90;;;;;;5080093;28;20424;-93
2022/05/10 02:27:02;;;;;;;1.40;1.00;;;13.10;99.90;;;;;;5075878;28;20473;-92
2022/05/10 02:29:35;;;;;;;1.00;0.90;;;13.00;99.90;;;;;;5075150;28;20472;-92
2022/05/10 02:34:55;;;;;;;1.33;1.13;;;13.00;99.90;;;;;;5074957;28;20793;-92
2022/05/10 02:37:22;;;;;;;1.43;1.00;;;12.90;99.90;;;;;;5075187;28;20452;-92
2022/05/10 02:39:49;;;;;;;1.40;0.80;;;12.90;99.90;;;;;;5074816;28;20998;-92
2022/05/10 02:42:19;;;;;;;1.57;1.00;;;12.80;99.90;;;;;;5075614;28;20441;-92
2022/05/10 02:44:50;;;;;;;2.80;0.90;;;12.80;99.90;;;;;;5075163;28;20436;-92
2022/05/10 02:47:27;;;;;;;1.50;0.70;;;12.70;99.90;;;;;;5074863;28;20465;-92
2022/05/10 02:49:54;;;;;;;1.10;0.70;;;12.70;99.90;;;;;;5077087;28;20521;-92
2022/05/10 02:52:20;;;;;;;0.83;0.83;;;12.70;99.90;;;;;;5076759;28;20456;-91
2022/05/10 02:54:47;;;;;;;1.03;0.80;;;12.70;99.90;;;;;;5076507;28;20448;-92
2022/05/10 02:57:14;;;;;;;0.80;0.80;;;12.60;99.90;;;;;;5075360;28;20451;-85
2022/05/10 02:59:41;;;;;;;1.27;0.83;;;12.60;99.90;;;;;;5073163;28;20998;-85
2022/05/10 03:02:17;;;;;;;2.83;1.00;;;12.60;99.90;;;;;;5073448;28;20815;-85
2022/05/10 03:04:51;;;;;;;1.53;1.03;;;12.50;99.90;;;;;;5073571;28;20425;-85
2022/05/10 03:07:17;;;;;;;2.70;1.03;;;12.50;99.90;;;;;;5073176;28;20461;-85
2022/05/10 03:09:44;;;;;;;1.27;0.80;;;12.50;99.90;;;;;;5073295;28;20480;-84
2022/05/10 03:12:12;;;;;;;3.73;1.23;;;12.50;99.90;;;;;;5073406;28;20804;-84
2022/05/10 03:14:39;;;;;;;2.30;1.60;;;12.50;99.90;;;;;;5073089;28;20433;-85
2022/05/10 03:17:06;;;;;;;3.47;1.60;;;12.40;99.90;;;;;;5073240;28;20441;-85
2022/05/10 03:19:34;;;;;;;1.80;1.30;;;12.40;99.90;;;;;;5073148;28;20468;-84
2022/05/10 03:22:01;;;;;;;1.70;1.00;;;12.40;99.90;;;;;;5073231;28;20445;-85
2022/05/10 03:24:27;;;;;;;2.00;1.30;;;12.40;99.90;;;;;;5073201;28;20449;-85
2022/05/10 03:26:55;;;;;;;2.40;1.17;;;12.40;99.90;;;;;;5072814;28;20485;-85
2022/05/10 03:29:22;;;;;;;1.20;1.00;;;12.40;99.90;;;;;;5072841;28;20543;-85
2022/05/10 03:31:49;;;;;;;3.40;1.73;;;12.30;99.90;;;;;;5073127;28;20441;-84
2022/05/10 03:37:01;;;;;;;2.40;0.90;;;12.30;99.90;;;;;;5073084;28;20911;-85
2022/05/10 03:39:28;;;;;;;1.27;1.23;;;12.20;99.90;;;;;;5072721;28;21044;-84
2022/05/10 03:41:55;;;;;;;1.80;1.30;;;12.20;99.90;;;;;;5073284;28;20445;-85
2022/05/10 03:44:22;;;;;;;1.37;1.27;;;12.20;99.90;;;;;;5073130;28;20444;-85
2022/05/10 03:46:48;;;;;;;6.90;2.10;;;12.20;99.90;;;;;;5072673;28;20487;-85
2022/05/10 03:49:16;;;;;;;1.80;1.00;;;12.20;99.90;;;;;;5072908;28;20464;-85
2022/05/10 03:51:43;;;;;;;1.10;0.87;;;12.20;99.90;;;;;;5072876;28;20452;-85
2022/05/10 03:54:12;;;;;;;1.23;0.63;;;12.10;99.90;;;;;;5076017;28;20445;-85
2022/05/10 03:56:38;;;;;;;2.40;1.00;;;12.10;99.90;;;;;;5076912;28;20442;-84
2022/05/10 03:59:05;;;;;;;1.33;0.90;;;12.10;99.90;;;;;;5076636;28;20455;-85
2022/05/10 04:01:32;;;;;;;1.07;0.97;;;12.10;99.90;;;;;;5076814;28;20433;-85
2022/05/10 04:03:59;;;;;;;1.47;1.30;;;12.10;99.90;;;;;;5076756;28;20452;-85
2022/05/10 04:06:26;;;;;;;3.07;1.60;;;12.10;99.90;;;;;;5076505;28;20480;-85
2022/05/10 04:08:52;;;;;;;0.90;0.90;;;12.10;99.90;;;;;;5076546;28;20551;-85
2022/05/10 04:11:20;;;;;;;2.03;1.20;;;12.10;99.90;;;;;;5076558;28;20444;-85
2022/05/10 04:13:47;;;;;;;1.13;1.00;;;12.10;99.90;;;;;;5076192;28;20948;-85
2022/05/10 04:16:14;;;;;;;1.57;1.00;;;12.20;99.90;;;;;;5076402;28;20453;-85
2022/05/10 04:18:41;;;;;;;0.80;0.80;;;12.10;99.90;;;;;;5076115;28;20932;-85
2022/05/10 04:21:08;;;;;;;1.90;1.50;;;12.20;99.90;;;;;;5076339;28;20460;-85
2022/05/10 04:23:35;;;;;;;2.17;1.10;;;12.20;99.90;;;;;;5076597;28;20464;-85
2022/05/10 04:26:06;;;;;;;1.87;0.83;;;12.20;99.90;;;;;;5076297;28;20814;-85
2022/05/10 04:28:35;;;;;;;2.00;1.23;;;12.20;99.90;;;;;;5076383;28;20417;-85
2022/05/10 04:31:02;;;;;;;1.37;0.93;;;12.30;99.90;;;;;;5076067;28;20460;-85
2022/05/10 04:33:29;;;;;;;2.23;1.17;;;12.30;99.90;;;;;;5076152;28;20472;-84
2022/05/10 04:35:56;;;;;;;2.73;0.70;;;12.30;99.90;;;;;;5076012;28;20943;-85
2022/05/10 04:38:23;;;;;;;2.73;1.00;;;12.40;99.90;;;;;;5075687;28;20448;-85
2022/05/10 04:43:38;;;;;;;4.10;1.80;;;12.50;99.90;;;;;;5076040;28;20400;-85
2022/05/10 04:46:05;;;;;;;1.37;1.33;;;12.60;99.90;;;;;;5075577;28;20456;-84
2022/05/10 04:48:33;;;;;;;3.40;1.10;;;12.60;99.90;;;;;;5075816;28;20484;-85
2022/05/10 04:51:00;;;;;;;1.77;1.03;;;12.70;99.90;;;;;;5075845;28;20526;-85
2022/05/10 04:53:28;;;;;;;2.20;1.00;;;12.80;99.90;;;;;;5077142;28;20460;-91
2022/05/10 04:55:54;;;;;;;3.13;1.23;;;12.80;99.90;;;;;;5077045;28;20436;-92
2022/05/10 04:58:21;;;;;;;1.80;1.47;;;12.90;99.90;;;;;;5076542;28;20451;-92
2022/05/10 05:00:49;;;;;;;1.80;1.17;;;13.00;99.90;;;;;;5076671;28;20465;-92
2022/05/10 05:03:16;;;;;;;0.87;0.77;;;13.00;99.90;;;;;;5076514;28;20452;-91
2022/05/10 05:05:43;;;;;;;1.60;1.50;;;13.10;99.90;;;;;;5076753;28;20449;-91
2022/05/10 05:08:10;;;;;;;2.13;0.83;;;13.20;99.90;;;;;;5076827;28;20484;-91
2022/05/10 05:10:37;;;;;;;2.33;1.83;;;13.30;99.90;;;;;;5084899;28;20491;-92
2022/05/10 05:13:04;;;;;;;2.53;1.00;;;13.40;99.90;;;;;;5078431;28;20932;-91
2022/05/10 05:15:30;;;;;;;1.50;1.50;;;13.50;99.90;;;;;;5076745;28;20429;-91
2022/05/10 05:17:58;;;;;;;1.97;1.20;;;13.50;99.90;;;;;;5076366;28;20480;-91
2022/05/10 05:20:25;;;;;;;1.57;1.33;;;13.60;99.90;;;;;;5076238;28;20460;-91
2022/05/10 05:22:53;;;;;;;0.97;0.87;;;13.70;99.90;;;;;;5076326;28;20444;-85
2022/05/10 05:25:20;;;;;;;1.43;1.33;;;13.80;99.90;;;;;;5075260;28;20436;-84
2022/05/10 05:27:47;;;;;;;2.83;2.17;;;13.90;99.90;;;;;;5074862;28;20893;-85
2022/05/10 05:30:14;;;;;;;1.00;0.80;;;14.00;99.90;;;;;;5075057;28;20465;-85
2022/05/10 05:32:41;;;;;;;1.60;1.13;;;14.10;99.90;;;;;;5074654;28;20995;-85
2022/05/10 05:35:11;;;;;;;3.47;1.60;;;14.20;99.90;;;;;;5075256;28;20445;-86
2022/05/10 05:37:38;;;;;;;4.00;1.80;;;14.30;99.90;;;;;;5074679;28;20453;-85
2022/05/10 05:40:08;;;;;;;2.40;1.30;;;14.40;99.90;;;;;;5075092;28;20864;-86
2022/05/10 05:42:35;;;;;;;2.50;1.97;;;14.40;99.90;;;;;;5074983;28;20429;-85
2022/05/10 05:45:02;;;;;;;2.60;1.80;;;14.50;99.90;;;;;;5074601;28;20453;-85
2022/05/10 05:47:29;;;;;;;2.90;1.47;;;14.60;99.90;;;;;;5074540;28;20460;-86
2022/05/10 05:49:56;;;;;;;1.37;1.00;;;14.70;99.90;;;;;;5074445;28;20980;-86
2022/05/10 05:52:25;;;;;;;2.40;1.23;;;14.70;99.90;;;;;;5074611;28;20445;-86
2022/05/10 05:54:52;;;;;;;1.50;1.00;;;14.80;99.90;;;;;;5074719;28;20448;-83
2022/05/10 05:57:20;;;;;;;1.57;1.23;;;14.90;99.90;;;;;;5074206;28;20441;-82
2022/05/10 05:59:48;;;;;;;2.60;2.00;;;15.10;99.90;;;;;;5074316;28;20475;-82
2022/05/10 06:02:17;;;;;;;4.57;1.90;;;15.20;99.90;;;;;;5074407;28;20445;-83
2022/05/10 06:04:45;;;;;;;2.27;1.17;;;15.30;99.90;;;;;;5074373;28;20461;-82
2022/05/10 06:07:13;;;;;;;2.50;1.33;;;15.50;99.90;;;;;;5074142;28;20480;-82
2022/05/10 06:09:43;;;;;;;0.80;0.80;;;15.70;99.90;;;;;;5074194;28;20479;-86
2022/05/10 06:12:12;;;;;;;2.13;1.93;;;15.90;99.90;;;;;;5074326;28;20440;-86
2022/05/10 06:14:39;;;;;;;5.00;1.50;;;16.00;99.90;;;;;;5074717;28;20495;-86
2022/05/10 06:17:07;;;;;;;1.43;1.33;;;16.30;99.90;;;;;;5073827;28;20808;-86
2022/05/10 06:19:36;;;;;;;2.57;2.00;;;16.50;99.90;;;;;;5073846;28;21007;-85
2022/05/10 06:22:03;;;;;;;2.77;1.23;;;16.70;99.90;;;;;;5074276;28;20433;-86
2022/05/10 06:24:30;;;;;;;1.17;1.03;;;16.90;99.90;;;;;;5074110;28;20448;-86
2022/05/10 06:26:58;;;;;;;1.93;1.63;;;17.10;99.90;;;;;;5073763;28;20437;-86
2022/05/10 06:29:25;;;;;;;2.00;1.43;;;17.20;99.90;;;;;;5073680;28;20473;-86
2022/05/10 06:31:51;;;;;;;2.00;1.50;;;17.20;99.90;;;;;;5073574;28;20933;-85
2022/05/10 06:34:19;;;;;;;3.23;1.77;;;17.30;99.90;;;;;;5073723;28;20477;-85
2022/05/10 06:36:46;;;;;;;2.20;2.00;;;17.40;99.90;;;;;;5073671;28;20445;-85
2022/05/10 06:39:13;;;;;;;2.10;1.50;;;17.60;99.90;;;;;;5073931;28;20475;-87
2022/05/10 06:41:40;;;;;;;2.97;1.53;;;17.80;99.90;;;;;;5074035;28;20523;-86
2022/05/10 06:44:09;;;;;;;2.63;1.80;;;18.00;99.90;;;;;;5073585;28;20451;-85
2022/05/10 06:46:37;;;;;;;2.03;1.80;;;18.30;99.90;;;;;;5073687;28;20463;-86
2022/05/10 06:49:04;;;;;;;2.87;1.83;;;18.50;99.90;;;;;;5073628;28;20484;-86
2022/05/10 06:51:32;;;;;;;3.67;1.83;;;18.80;99.90;;;;;;5073443;28;20990;-86
2022/05/10 06:54:00;;;;;;;3.20;2.40;;;19.10;99.90;;;;;;5073331;28;20443;-85
2022/05/10 06:56:27;;;;;;;1.90;1.57;;;19.40;99.90;;;;;;5073682;28;20448;-86
2022/05/10 06:58:54;;;;;;;2.77;2.27;;;19.30;99.90;;;;;;5073751;28;20440;-85
2022/05/10 07:01:22;;;;;;;2.40;1.50;;;19.60;99.90;;;;;;5073235;28;20939;-86
2022/05/10 07:03:50;;;;;;;2.20;1.83;;;19.80;99.90;;;;;;5073464;28;20531;-86
2022/05/10 07:06:20;;;;;;;3.07;2.13;;;20.00;99.90;;;;;;5073186;28;20939;-86
2022/05/10 07:08:47;;;;;;;1.60;1.17;;;20.10;99.90;;;;;;5073304;28;20467;-86
2022/05/10 07:11:14;;;;;;;2.30;2.20;;;20.40;99.90;;;;;;5073190;28;20986;-86
2022/05/10 07:13:41;;;;;;;2.67;2.23;;;20.50;99.90;;;;;;5073928;28;20476;-86
2022/05/10 07:16:08;;;;;;;3.77;2.50;;;20.70;99.90;;;;;;5073405;28;20458;-87
2022/05/10 07:18:36;;;;;;;3.63;2.20;;;20.90;99.90;;;;;;5073614;28;20201;-86
2022/05/10 07:21:03;;;;;;;1.80;1.53;;;21.40;99.90;;;;;;5073414;28;20222;-86
2022/05/10 07:23:31;;;;;;;2.72;1.67;;;21.70;99.90;;;;;;5073294;28;20208;-86
2022/05/10 07:25:58;;;;;;;1.88;1.67;;;22.20;99.90;;;;;;5073122;28;20696;-87
2022/05/10 07:28:29;;;;;;;2.78;2.00;;;22.50;99.90;;;;;;5074954;28;20213;-86
2022/05/10 07:30:56;;;;;;;4.50;2.42;;;22.40;99.90;;;;;;5077415;28;20225;-87
2022/05/10 07:33:24;;;;;;;3.60;3.05;;;22.70;99.90;;;;;;5077119;28;20226;-86
2022/05/10 07:38:37;;;;;;;2.55;1.98;;;23.00;99.90;;;;;;5077684;28;20177;-88
2022/05/10 07:41:04;;;;;;;1.88;1.77;;;23.20;99.90;;;;;;5077981;28;20226;-88
2022/05/10 07:43:35;;;;;;;2.10;1.88;;;23.30;99.90;;;;;;5077423;28;20194;-87
2022/05/10 07:46:02;;;;;;;1.92;1.83;;;23.70;99.90;;;;;;5077895;28;20252;-88
2022/05/10 07:48:29;;;;;;;2.30;1.95;;;24.20;99.90;;;;;;5078424;28;20225;-88
2022/05/10 07:50:57;;;;;;;2.85;1.92;;;24.70;99.90;;;;;;5077877;28;20225;-88
2022/05/10 07:53:24;;;;;;;2.92;2.33;;;25.10;99.90;;;;;;5077476;28;20209;-88
2022/05/10 07:55:51;;;;;;;2.95;1.95;;;25.50;99.90;;;;;;5077384;28;20210;-88
2022/05/10 07:58:18;;;;;;;3.05;2.17;;;26.10;99.00;;;;;;5086340;28;20201;-87
2022/05/10 08:00:47;;;;;;;2.63;2.05;;;26.60;96.60;;;;;;5078914;28;20224;-86
2022/05/10 08:03:16;;;;;;;1.92;1.83;;;27.40;95.10;;;;;;5077405;28;20541;-86
2022/05/10 08:05:43;;;;;;;2.28;2.17;;;28.20;91.80;;;;;;5077326;28;20213;-86
2022/05/10 08:08:12;;;;;;;2.35;2.15;;;28.80;90.00;;;;;;5076782;28;20244;-85
2022/05/10 08:10:40;;;;;;;2.55;2.25;;;29.30;87.30;;;;;;5076777;28;20218;-86
2022/05/10 08:13:11;;;;;;;1.98;1.77;;;29.70;81.30;;;;;;5076524;28;20695;-86
2022/05/10 08:15:38;;;;;;;2.38;2.15;;;29.90;76.10;;;;;;5076866;28;20191;-86
2022/05/10 08:18:06;;;;;;;1.75;1.65;;;29.70;74.30;;;;;;5077268;28;20209;-87
2022/05/10 08:20:32;;;;;;;2.20;1.90;;;29.40;72.10;;;;;;5076574;28;20226;-87
2022/05/10 08:22:59;;;;;;;2.70;2.50;;;29.10;72.30;;;;;;5076465;28;20201;-86
2022/05/10 08:25:27;;;;;;;2.20;2.03;;;28.60;73.60;;;;;;5076817;28;20296;-86
2022/05/10 08:27:54;;;;;;;3.17;2.20;;;27.70;72.30;;;;;;5076382;28;20208;-87
2022/05/10 08:30:21;;;;;;;2.28;2.00;;;27.50;76.60;;;;;;5076323;28;20597;-86
2022/05/10 08:32:48;;;;;;;1.45;1.35;;;27.30;76.80;;;;;;5076254;28;20275;-86
2022/05/10 08:35:15;;;;;;;1.55;1.45;;;26.70;76.50;;;;;;5076100;28;20673;-87
2022/05/10 08:37:41;;;;;;;1.48;1.38;;;26.70;78.90;;;;;;5076049;28;20207;-86
2022/05/10 08:40:19;;;;;;;2.15;1.65;;;26.60;76.70;;;;;;5076058;28;20226;-86
2022/05/10 08:42:51;;;;;;;1.70;1.60;;;26.60;79.20;;;;;;5076162;28;20195;-87
2022/05/10 08:45:18;;;;;;;4.22;2.03;;;26.60;76.40;;;;;;5076072;28;20190;-83
2022/05/10 08:47:46;;;;;;;2.42;1.98;;;26.60;75.70;;;;;;5076151;28;20191;-86
2022/05/10 08:50:14;;;;;;;1.73;1.52;;;26.50;78.40;;;;;;5075756;28;20215;-87
2022/05/10 08:52:45;;;;;;;2.70;2.17;;;26.40;78.70;;;;;;5075913;28;20207;-87
2022/05/10 08:55:13;;;;;;;1.40;1.30;;;26.30;77.50;;;;;;5076393;28;20214;-87
2022/05/10 08:57:46;;;;;;;2.30;1.90;;;25.70;77.10;;;;;;5075881;28;20573;-87
2022/05/10 09:00:20;;;;;;;1.95;1.75;;;25.60;79.40;;;;;;5075546;28;20217;-85
2022/05/10 09:02:51;;;;;;;1.83;1.50;;;25.50;79.80;;;;;;5075721;28;20272;-87
2022/05/10 09:05:22;;;;;;;2.00;1.40;;;25.40;79.10;;;;;;5075803;28;20186;-86
2022/05/10 09:07:56;;;;;;;1.55;1.25;;;25.50;78.00;;;;;;5075682;28;20205;-86
2022/05/10 09:10:31;;;;;;;1.75;1.60;;;25.50;78.50;;;;;;5075935;28;20716;-87
2022/05/10 09:13:03;;;;;;;1.63;1.23;;;25.50;77.80;;;;;;5075605;28;20598;-86
2022/05/10 09:15:36;;;;;;;1.52;1.25;;;25.80;75.60;;;;;;5075809;28;20242;-86
2022/05/10 09:18:08;;;;;;;2.40;1.70;;;25.90;71.60;;;;;;5075251;28;20645;-86
2022/05/10 09:20:40;;;;;;;2.72;1.20;;;25.80;68.10;;;;;;5076013;28;20234;-88
2022/05/10 09:23:20;;;;;;;1.50;1.40;;;25.80;70.80;;;;;;5075424;28;20201;-86
2022/05/10 09:25:46;;;;;;;1.38;1.27;;;25.70;69.70;;;;;;5075512;28;20190;-86
2022/05/10 09:28:21;;;;;;;1.27;1.17;;;25.70;68.40;;;;;;5075215;28;20233;-86
2022/05/10 09:36:24;;;;;;;1.90;1.73;;;25.50;66.50;;;;;;5074896;28;20204;-86
2022/05/10 09:38:51;;;;;;;1.88;1.30;;;25.50;67.30;;;;;;5075117;28;20629;-87
2022/05/10 09:41:31;;;;;;;1.83;1.45;;;25.50;71.20;;;;;;5075048;28;20231;-87
2022/05/10 09:43:58;;;;;;;1.33;1.00;;;25.50;70.30;;;;;;5075496;28;20191;-87
2022/05/10 09:46:29;;;;;;;2.08;1.13;;;25.50;72.80;;;;;;5074672;28;20550;-86
2022/05/10 09:48:56;;;;;;;3.95;1.77;;;25.60;68.00;;;;;;5074724;28;20291;-87
2022/05/10 09:51:34;;;;;;;1.20;1.10;;;25.70;68.80;;;;;;5074008;28;20190;-86
2022/05/10 09:54:04;;;;;;;1.55;1.40;;;25.70;68.00;;;;;;5074914;28;20194;-86
2022/05/10 09:56:36;;;;;;;1.45;1.35;;;25.60;68.50;;;;;;5074888;28;20609;-86
2022/05/10 09:59:06;;;;;;;1.20;1.10;;;25.60;70.10;;;;;;5074470;28;20178;-86
2022/05/10 10:01:43;;;;;;;1.38;1.25;;;25.60;69.50;;;;;;5074599;28;20191;-87
2022/05/10 10:04:17;;;;;;;1.30;1.20;;;25.50;69.70;;;;;;5074227;28;20655;-87
2022/05/10 10:06:44;;;;;;;1.48;1.30;;;25.70;70.60;;;;;;5074612;28;20554;-86
2022/05/10 10:09:20;;;;;;;2.47;1.20;;;25.70;70.40;;;;;;5074408;28;20210;-86
2022/05/10 10:11:47;;;;;;;1.65;1.48;;;25.60;70.30;;;;;;5074592;28;20190;-86
2022/05/10 10:14:14;;;;;;;1.58;1.27;;;25.60;71.60;;;;;;5074378;28;20193;-86
2022/05/10 10:16:51;;;;;;;1.10;1.10;;;25.50;69.00;;;;;;5074273;28;20293;-86
2022/05/10 10:19:34;;;;;;;1.45;1.10;;;25.40;68.80;;;;;;5074185;28;20591;-86
2022/05/10 10:22:06;;;;;;;1.00;1.00;;;25.50;69.60;;;;;;5074245;28;20284;-86
2022/05/10 10:24:44;;;;;;;1.05;0.93;;;25.50;68.00;;;;;;5074726;28;20186;-86
2022/05/10 10:27:18;;;;;;;2.22;1.10;;;25.70;67.40;;;;;;5074099;28;20186;-86
2022/05/10 10:29:50;;;;;;;1.35;1.17;;;25.80;62.40;;;;;;5074083;28;20232;-89
2022/05/10 10:32:23;;;;;;;1.27;1.17;;;26.00;63.10;;;;;;5074915;28;20200;-89
2022/05/10 10:34:55;;;;;;;1.40;1.13;;;26.20;63.60;;;;;;5074900;28;20186;-90
2022/05/10 10:37:29;;;;;;;1.30;1.20;;;26.30;65.10;;;;;;5075773;28;20273;-90
2022/05/10 10:40:13;;;;;;;1.67;0.98;;;26.50;63.30;;;;;;5075930;28;20218;-89
2022/05/10 10:42:49;;;;;;;1.20;1.10;;;26.40;61.90;;;;;;5081526;28;20190;-86
2022/05/10 10:45:17;;;;;;;1.30;1.20;;;26.30;63.10;;;;;;5083825;28;20185;-90
2022/05/10 10:47:54;;;;;;;1.10;1.00;;;26.20;62.60;;;;;;5080098;28;20186;-84
2022/05/10 10:50:25;;;;;;;1.27;0.82;;;26.20;60.30;;;;;;5075651;28;20308;-85
2022/05/10 10:52:52;;;;;;;1.38;1.27;;;26.40;62.70;;;;;;5075062;28;20595;-86
2022/05/10 10:55:21;;;;;;;1.10;1.05;;;26.30;61.80;;;;;;5074877;28;20212;-86
2022/05/10 10:57:59;;;;;;;1.48;1.00;;;26.50;59.60;;;;;;5074510;28;20632;-86
2022/05/10 11:00:31;;;;;;;1.52;1.42;;;26.70;58.70;;;;;;5074061;28;20596;-86
2022/05/10 11:03:08;;;;;;;1.20;1.10;;;27.00;60.60;;;;;;5074521;28;20193;-86
2022/05/10 11:06:04;;;;;;;3.33;1.33;;;27.00;56.90;;;;;;5076458;28;20186;-89
2022/05/10 11:08:57;;;;;;;0.98;0.98;;;26.80;59.30;;;;;;5077407;28;20214;-90
2022/05/10 11:11:34;;;;;;;0.90;0.90;;;26.30;58.30;;;;;;5075608;28;20198;-90
2022/05/10 11:14:21;;;;;;;1.80;1.27;;;26.10;58.90;;;;;;5076636;28;20201;-90
2022/05/10 11:16:58;;;;;;;1.13;1.02;;;26.00;59.10;;;;;;5076996;28;20232;-89
2022/05/10 11:19:51;;;;;;;0.88;0.85;;;25.90;58.80;;;;;;5077529;28;20685;-89
2022/05/10 11:22:34;;;;;;;1.17;1.02;;;25.80;60.20;;;;;;5048400;28;20699;-88
2022/05/10 11:25:10;;;;;;;1.35;1.05;;;26.00;60.00;;;;;;5077069;28;20187;-88
2022/05/10 11:28:10;;;;;;;1.42;1.33;;;25.90;60.30;;;;;;5076716;28;20208;-88
2022/05/10 11:30:47;;;;;;;1.65;1.55;;;25.50;59.60;;;;;;5055403;28;20236;-88
2022/05/10 11:33:26;;;;;;;1.52;1.30;;;25.30;60.20;;;;;;5075631;28;20233;-88
2022/05/10 11:36:09;;;;;;;1.13;1.00;;;25.20;61.80;;;;;;5075507;28;20190;-87
2022/05/10 11:39:13;;;;;;;1.30;1.10;;;25.10;61.80;;;;;;5076310;28;20194;-88
2022/05/10 11:41:47;;;;;;;1.27;1.17;;;25.10;63.60;;;;;;5075346;28;20577;-84
2022/05/10 11:44:34;;;;;;;0.93;0.93;;;25.10;63.00;;;;;;5073162;28;20186;-84
2022/05/10 11:47:34;;;;;;;1.25;1.15;;;25.20;63.00;;;;;;5073159;28;20185;-84
2022/05/10 11:50:28;;;;;;;1.20;1.10;;;25.20;64.70;;;;;;5073241;28;20228;-84
2022/05/10 11:53:09;;;;;;;1.38;1.20;;;25.10;63.10;;;;;;5073371;28;20548;-84
2022/05/10 11:55:48;;;;;;;1.60;1.10;;;25.10;64.30;;;;;;5073118;28;20656;-84
2022/05/10 11:58:15;;;;;;;1.13;1.05;;;25.10;65.20;;;;;;5073931;28;20197;-89
2022/05/10 12:00:51;;;;;;;1.45;1.17;;;25.10;63.80;;;;;;5073731;28;20221;-88
2022/05/10 12:03:55;;;;;;;2.47;1.13;;;25.20;63.30;;;;;;5074983;28;20252;-85
2022/05/10 12:06:48;;;;;;;1.27;1.17;;;25.60;66.30;;;;;;5073234;28;20191;-84
2022/05/10 12:09:38;;;;;;;1.17;0.88;;;25.60;65.30;;;;;;5073105;28;20729;-86
2022/05/10 12:12:06;;;;;;;1.85;1.73;;;25.70;65.70;;;;;;5072650;28;20202;-86
2022/05/10 12:21:20;;;;;;;1.38;1.27;;;25.80;64.40;;;;;;5076592;28;20264;-85
2022/05/10 12:24:07;;;;;;;1.05;1.05;;;25.80;61.30;;;;;;5076383;28;20637;-84
2022/05/10 12:26:43;;;;;;;1.08;0.98;;;25.50;59.40;;;;;;5076854;28;20186;-86
2022/05/10 12:29:49;;;;;;;1.45;1.35;;;25.40;62.20;;;;;;5076833;28;20217;-86
2022/05/10 12:32:43;;;;;;;2.00;1.48;;;25.40;62.40;;;;;;5061777;28;20206;-87
2022/05/10 12:35:13;;;;;;;1.65;1.40;;;25.50;63.30;;;;;;5077325;28;20194;-86
2022/05/10 12:38:01;;;;;;;1.10;1.00;;;25.60;65.30;;;;;;5076568;28;20664;-84
2022/05/10 12:40:54;;;;;;;0.93;0.82;;;25.70;66.30;;;;;;5076974;28;20222;-82
2022/05/10 12:44:09;;;;;;;1.55;1.45;;;25.80;65.90;;;;;;5077522;28;20206;-89
2022/05/10 12:46:45;;;;;;;1.80;1.70;;;25.80;65.70;;;;;;5076629;28;20664;-87
2022/05/10 12:49:34;;;;;;;1.67;1.20;;;25.80;63.80;;;;;;5077610;28;20230;-88
2022/05/10 12:52:56;;;;;;;1.15;1.05;;;25.60;63.10;;;;;;5078091;28;20256;-88
2022/05/10 12:55:26;;;;;;;0.70;0.70;;;25.70;62.80;;;;;;5077291;28;20628;-88
2022/05/10 12:57:57;;;;;;;2.97;1.25;;;25.60;63.80;;;;;;5077804;28;20186;-88
2022/05/10 13:00:27;;;;;;;1.75;1.55;;;25.50;64.60;;;;;;5077541;28;20228;-88
2022/05/10 13:03:01;;;;;;;1.15;1.13;;;25.40;63.10;;;;;;5076945;28;20658;-88
2022/05/10 13:05:49;;;;;;;1.85;1.20;;;25.20;62.60;;;;;;5077794;28;20224;-88
2022/05/10 13:08:37;;;;;;;1.50;1.20;;;25.10;64.70;;;;;;5076571;28;20217;-88
2022/05/10 13:11:07;;;;;;;1.02;0.93;;;25.00;63.60;;;;;;5076132;28;20225;-88
2022/05/10 13:13:34;;;;;;;2.15;1.38;;;24.80;63.00;;;;;;5075819;28;20209;-81
2022/05/10 13:16:02;;;;;;;1.35;1.17;;;24.60;67.20;;;;;;5075742;28;20205;-87
2022/05/10 13:18:31;;;;;;;1.60;1.45;;;24.40;71.40;;;;;;5076424;28;20205;-83
2022/05/10 13:21:01;;;;;;;1.55;1.00;;;24.30;69.10;;;;;;5076066;28;20218;-88
2022/05/10 13:23:30;;;;;;;2.38;1.38;;;24.30;69.70;;;;;;5077576;28;20196;-88
2022/05/10 13:26:05;;;;;;;1.80;1.30;;;24.30;73.30;;;;;;5085758;28;20202;-88
2022/05/10 13:28:50;;;;;;;2.03;1.38;;;24.10;71.10;;;;;;5082685;28;20239;-88
2022/05/10 13:31:20;;;;;;;2.05;1.10;;;24.00;73.40;;;;;;5080237;28;20263;-86
2022/05/10 13:33:50;;;;;;;2.22;1.35;;;24.00;75.50;;;;;;5079505;28;20283;-86